^^
Saratoga-Weather Station Historical Data
 
Daily Summary for October 06, 2022 Units:  Metric    English   Both
Daily Weekly Monthly Yearly
  Current: High: Low: Average:
Temperature: 23.2 °C 24.3 °C 12.9 °C 18 °C
Dew Point: 15.6 °C 16.5 °C 12.3 °C 14.5 °C
Humidity: 62.4% 96% 56.2% 82%
Wind Speed: 3.9km/h 11.3km/h 0km/h 3.7km/h
Wind Gust: 6.4km/h 14.5km/h - -
WindENE - - South
Pressure: 1024.9 hPa 1026.6 hPa 1024.4 hPa -
Precipitation: 0.0 mm      
 
 
Tabular Data for October 06, 2022
Time Temperature Dew Point Pressure Wind Wind Speed Wind Gust Humidity Rainfall Rate (Hourly) solar
00:04 16.1 °C 14.4 °C 1025.1 hPa NNW 5.4 km/h 6.4 km/h 89.5% 0.0 mm 0 W/m2
00:09 16.1 °C 14.3 °C 1025.1 hPa NNW 4.2 km/h 6.4 km/h 89.1% 0.0 mm 0 W/m2
00:14 16 °C 14.2 °C 1025.1 hPa NNW 3.3 km/h 4.8 km/h 89% 0.0 mm 0 W/m2
00:19 15.9 °C 14.3 °C 1025.1 hPa NNW 3.4 km/h 3.2 km/h 90% 0.0 mm 0 W/m2
00:24 15.9 °C 14.3 °C 1025.1 hPa NNW 3.4 km/h 3.2 km/h 90% 0.0 mm 0 W/m2
00:29 15.9 °C 14.2 °C 1025.1 hPa NNW 3.4 km/h 3.2 km/h 90% 0.0 mm 0 W/m2
00:34 15.8 °C 14.2 °C 1025.1 hPa NNW 2.8 km/h 3.2 km/h 90% 0.0 mm 0 W/m2
00:39 15.8 °C 14.3 °C 1025.0 hPa NNW 3.4 km/h 3.2 km/h 90.7% 0.0 mm 0 W/m2
00:43 15.8 °C 14.3 °C 1025.0 hPa NNW 3.3 km/h 3.2 km/h 90.8% 0.0 mm 0 W/m2
00:49 15.7 °C 14.1 °C 1025.0 hPa NNW 2.5 km/h 3.2 km/h 90% 0.0 mm 0 W/m2
00:54 15.7 °C 14 °C 1025.0 hPa NNW 3.4 km/h 3.2 km/h 90% 0.0 mm 0 W/m2
00:59 15.6 °C 14 °C 1024.9 hPa NNW 3.3 km/h 3.2 km/h 90% 0.0 mm 0 W/m2
01:03 15.7 °C 14 °C 1024.9 hPa NNW 2.5 km/h 3.2 km/h 90% 0.0 mm 0 W/m2
01:09 15.6 °C 14 °C 1024.9 hPa NNW 3.4 km/h 3.2 km/h 90% 0.0 mm 0 W/m2
01:13 15.6 °C 14 °C 1024.9 hPa NNW 3.3 km/h 3.2 km/h 90% 0.0 mm 0 W/m2
01:19 15.6 °C 14 °C 1024.9 hPa NNW 3.3 km/h 3.2 km/h 90% 0.0 mm 0 W/m2
01:24 15.5 °C 13.9 °C 1024.9 hPa NNW 1.9 km/h 3.2 km/h 90% 0.0 mm 0 W/m2
01:28 15.5 °C 14.1 °C 1024.9 hPa NNW 2.3 km/h 1.8 km/h 91% 0.0 mm 0 W/m2
01:34 15.5 °C 14 °C 1024.9 hPa NNW 2.2 km/h 3.2 km/h 91% 0.0 mm 0 W/m2
01:39 15.4 °C 14 °C 1024.9 hPa NNW 2.8 km/h 1.9 km/h 91% 0.0 mm 0 W/m2
01:44 15.4 °C 13.9 °C 1024.9 hPa NNW 3.4 km/h 3.2 km/h 91% 0.0 mm 0 W/m2
01:49 15.4 °C 13.9 °C 1024.8 hPa NNW 2.5 km/h 3.2 km/h 91.2% 0.0 mm 0 W/m2
01:54 15.3 °C 14 °C 1024.8 hPa NNW 2.7 km/h 3.2 km/h 92% 0.0 mm 0 W/m2
01:59 15.3 °C 14 °C 1024.8 hPa NNW 2.2 km/h 3.2 km/h 92% 0.0 mm 0 W/m2
02:04 15.3 °C 14 °C 1024.8 hPa NNW 1.6 km/h 3.2 km/h 92% 0.0 mm 0 W/m2
02:09 15.2 °C 13.9 °C 1024.8 hPa NNW 1.9 km/h 1.6 km/h 92% 0.0 mm 0 W/m2
02:14 15.2 °C 13.9 °C 1024.7 hPa NNW 1.5 km/h 1.6 km/h 92% 0.0 mm 0 W/m2
02:19 15.2 °C 13.9 °C 1024.7 hPa NNW 1.7 km/h 1.6 km/h 92% 0.0 mm 0 W/m2
02:24 15.2 °C 13.9 °C 1024.7 hPa NNW 1.9 km/h 1.6 km/h 92% 0.0 mm 0 W/m2
02:28 15.2 °C 13.9 °C 1024.7 hPa NNW 1.9 km/h 1.6 km/h 92% 0.0 mm 0 W/m2
02:34 15.3 °C 14 °C 1024.7 hPa NNW 1.7 km/h 1.6 km/h 92% 0.0 mm 0 W/m2
02:39 15.3 °C 14 °C 1024.7 hPa NNW 1.6 km/h 1.6 km/h 92% 0.0 mm 0 W/m2
02:44 15.2 °C 13.9 °C 1024.7 hPa NNW 1.9 km/h 1.6 km/h 92% 0.0 mm 0 W/m2
02:49 15.2 °C 13.9 °C 1024.7 hPa NNW 1.5 km/h 1.6 km/h 92% 0.0 mm 0 W/m2
02:54 15.1 °C 13.9 °C 1024.7 hPa NNW 1.8 km/h 1.6 km/h 92.7% 0.0 mm 0 W/m2
02:59 15 °C 14 °C 1024.7 hPa Calm   1.6 km/h 93.3% 0.0 mm 0 W/m2
03:04 15 °C 13.9 °C 1024.7 hPa Calm     93.4% 0.0 mm 0 W/m2
03:09 15 °C 13.9 °C 1024.6 hPa NNW 0.3 km/h 0.2 km/h 93% 0.0 mm 0 W/m2
03:14 15 °C 13.9 °C 1024.6 hPa NNW 0.8 km/h 1.6 km/h 93% 0.0 mm 0 W/m2
03:19 15.1 °C 14 °C 1024.5 hPa Calm   1.6 km/h 93% 0.0 mm 0 W/m2
03:24 15.2 °C 13.9 °C 1024.5 hPa Calm     92.4% 0.0 mm 0 W/m2
03:29 15.2 °C 13.9 °C 1024.5 hPa Calm     92% 0.0 mm 0 W/m2
03:34 15.2 °C 13.9 °C 1024.5 hPa Calm     92% 0.0 mm 0 W/m2
03:39 15.2 °C 13.9 °C 1024.5 hPa Calm     92% 0.0 mm 0 W/m2
03:44 15.1 °C 13.8 °C 1024.5 hPa NNW 0.6 km/h 0.6 km/h 92% 0.0 mm 0 W/m2
03:49 15 °C 13.7 °C 1024.5 hPa NNW 1.4 km/h 1.6 km/h 92% 0.0 mm 0 W/m2
03:53 14.9 °C 13.6 °C 1024.4 hPa NNW 1.4 km/h 1.6 km/h 92.2% 0.0 mm 0 W/m2
03:59 14.9 °C 13.6 °C 1024.5 hPa Calm   1.6 km/h 92.2% 0.0 mm 0 W/m2
04:04 14.8 °C 13.6 °C 1024.5 hPa Calm     92% 0.0 mm 0 W/m2
04:09 14.8 °C 13.5 °C 1024.5 hPa NNW 0.3 km/h 0.2 km/h 92% 0.0 mm 0 W/m2
04:14 14.7 °C 13.4 °C 1024.5 hPa West 3.8 km/h 3.9 km/h 92% 0.0 mm 0 W/m2
04:19 14.7 °C 13.6 °C 1024.5 hPa West 1.1 km/h 4.8 km/h 92.9% 0.0 mm 0 W/m2
04:24 14.6 °C 13.5 °C 1024.4 hPa Calm   1.6 km/h 93% 0.0 mm 0 W/m2
04:29 14.6 °C 13.5 °C 1024.4 hPa Calm     93% 0.0 mm 0 W/m2
04:34 14.6 °C 13.5 °C 1024.4 hPa Calm     93% 0.0 mm 0 W/m2
04:39 14.5 °C 13.4 °C 1024.4 hPa West 1.3 km/h 1 km/h 93% 0.0 mm 0 W/m2
04:44 14.4 °C 13.3 °C 1024.4 hPa West 1 km/h 1.6 km/h 93% 0.0 mm 0 W/m2
04:49 14.4 °C 13.3 °C 1024.5 hPa West 1.6 km/h 1.6 km/h 93% 0.0 mm 0 W/m2
04:54 14.4 °C 13.3 °C 1024.5 hPa West 1.2 km/h 1.6 km/h 93% 0.0 mm 0 W/m2
04:59 14.5 °C 13.4 °C 1024.5 hPa West 2.2 km/h 1.8 km/h 93% 0.0 mm 0 W/m2
05:04 14.6 °C 13.4 °C 1024.5 hPa West 0.9 km/h 3.2 km/h 93% 0.0 mm 0 W/m2
05:09 14.5 °C 13.4 °C 1024.6 hPa Calm   1.6 km/h 93% 0.0 mm 0 W/m2
05:14 14.4 °C 13.3 °C 1024.5 hPa Calm     93% 0.0 mm 0 W/m2
05:19 14.4 °C 13.3 °C 1024.5 hPa Calm     93.3% 0.0 mm 0 W/m2
05:24 14.4 °C 13.3 °C 1024.5 hPa Calm     93.5% 0.0 mm 0 W/m2
05:29 14.2 °C 13.2 °C 1024.6 hPa Calm     93.6% 0.0 mm 0 W/m2
05:34 14.2 °C 13.2 °C 1024.6 hPa Calm     94% 0.0 mm 0 W/m2
05:39 14.3 °C 13.3 °C 1024.5 hPa Calm     94% 0.0 mm 0 W/m2
05:44 14.2 °C 13.3 °C 1024.5 hPa Calm     94% 0.0 mm 0 W/m2
05:49 14.2 °C 13.3 °C 1024.5 hPa Calm     94% 0.0 mm 0 W/m2
05:54 14.3 °C 13.3 °C 1024.4 hPa Calm     94% 0.0 mm 0 W/m2
05:59 14.3 °C 13.3 °C 1024.4 hPa Calm     94% 0.0 mm 0 W/m2
06:04 14.2 °C 13.3 °C 1024.4 hPa Calm     94% 0.0 mm 0 W/m2
06:09 14.2 °C 13.2 °C 1024.5 hPa Calm     94% 0.0 mm 0 W/m2
06:14 14 °C 13.1 °C 1024.6 hPa Calm     94% 0.0 mm 0 W/m2
06:19 13.8 °C 12.8 °C 1024.7 hPa Calm     94% 0.0 mm 0 W/m2
06:24 13.7 °C 12.8 °C 1024.8 hPa Calm     94.3% 0.0 mm 0 W/m2
06:29 13.7 °C 12.9 °C 1024.8 hPa Calm     95% 0.0 mm 0 W/m2
06:34 13.8 °C 13 °C 1024.9 hPa Calm     95% 0.0 mm 0 W/m2
06:39 13.7 °C 12.9 °C 1024.8 hPa Calm     95% 0.0 mm 0 W/m2
06:44 13.7 °C 12.9 °C 1024.9 hPa Calm     95% 0.0 mm 0 W/m2
06:49 13.7 °C 12.9 °C 1024.9 hPa Calm     95% 0.0 mm 0 W/m2
06:54 13.7 °C 13 °C 1025.0 hPa Calm     95% 0.0 mm 0 W/m2
06:59 13.8 °C 13 °C 1024.9 hPa Calm     95% 0.0 mm 0 W/m2
07:04 13.7 °C 12.9 °C 1025.0 hPa Calm     95% 0.0 mm 0 W/m2
07:09 13.6 °C 12.8 °C 1025.0 hPa Calm     95% 0.0 mm 0 W/m2
07:14 13.6 °C 12.8 °C 1025.0 hPa Calm     95% 0.0 mm 0 W/m2
07:19 13.5 °C 12.8 °C 1025.0 hPa Calm     95% 0.0 mm 0 W/m2
07:24 13.4 °C 12.6 °C 1025.0 hPa Calm     95% 0.0 mm 0 W/m2
07:29 13.3 °C 12.5 °C 1025.0 hPa Calm     95% 0.0 mm 0 W/m2
07:34 13.3 °C 12.5 °C 1025.0 hPa Calm     95.2% 0.0 mm 7 W/m2
07:39 13.2 °C 12.4 °C 1025.1 hPa Calm     95% 0.0 mm 12 W/m2
07:44 13.2 °C 12.4 °C 1025.1 hPa Calm     95% 0.0 mm 16 W/m2
07:49 13.2 °C 12.6 °C 1025.1 hPa Calm     96% 0.0 mm 25 W/m2
07:54 13.3 °C 12.7 °C 1025.2 hPa Calm     96% 0.0 mm 32 W/m2
07:59 13.3 °C 12.7 °C 1025.2 hPa NNW 1 km/h 0.6 km/h 96% 0.0 mm 40 W/m2
08:04 13.3 °C 12.7 °C 1025.3 hPa NNW 1.5 km/h 3.2 km/h 96% 0.0 mm 46 W/m2
08:09 13.2 °C 12.6 °C 1025.3 hPa NNW 3.4 km/h 3.2 km/h 96% 0.0 mm 51 W/m2
08:14 13.1 °C 12.5 °C 1025.4 hPa NNW 3.6 km/h 3.2 km/h 96% 0.0 mm 58 W/m2
08:19 13 °C 12.4 °C 1025.4 hPa NNW 3.6 km/h 3.2 km/h 96% 0.0 mm 63 W/m2
08:24 12.9 °C 12.3 °C 1025.6 hPa NNW 4.5 km/h 3.5 km/h 96% 0.0 mm 65 W/m2
08:29 13 °C 12.4 °C 1025.6 hPa NNW 3.5 km/h 4.8 km/h 96% 0.0 mm 81 W/m2
08:33 13.1 °C 12.5 °C 1025.7 hPa NNW 2.2 km/h 3.2 km/h 96% 0.0 mm 83 W/m2
08:39 13.2 °C 12.6 °C 1025.7 hPa Calm   1.6 km/h 96% 0.0 mm 79 W/m2
08:44 13.4 °C 12.8 °C 1025.8 hPa NNW 0.6 km/h 0.6 km/h 96% 0.0 mm 100 W/m2
08:49 13.6 °C 13 °C 1025.8 hPa North 2.7 km/h 1.6 km/h 96% 0.0 mm 121 W/m2
08:54 13.8 °C 13.2 °C 1025.9 hPa North 2.8 km/h 3.2 km/h 96% 0.0 mm 128 W/m2
08:59 14 °C 13.4 °C 1026.0 hPa North 3.7 km/h 3.2 km/h 96% 0.0 mm 139 W/m2
09:04 14.1 °C 13.5 °C 1026.0 hPa North 2.2 km/h 4.8 km/h 96% 0.0 mm 144 W/m2
09:09 14.3 °C 13.7 °C 1026.0 hPa North 3.3 km/h 2.3 km/h 96% 0.0 mm 149 W/m2
09:14 14.5 °C 13.9 °C 1026.1 hPa North 3.3 km/h 3.2 km/h 96% 0.0 mm 167 W/m2
09:19 14.7 °C 14.1 °C 1026.1 hPa North 3.4 km/h 3.2 km/h 96% 0.0 mm 190 W/m2
09:24 14.9 °C 14.2 °C 1026.1 hPa North 3.4 km/h 3.2 km/h 95.3% 0.0 mm 216 W/m2
09:29 15.1 °C 14.3 °C 1026.2 hPa North 3.3 km/h 3.2 km/h 95% 0.0 mm 250 W/m2
09:34 15.3 °C 14.5 °C 1026.2 hPa North 3.9 km/h 3.2 km/h 95% 0.0 mm 269 W/m2
09:39 15.7 °C 14.9 °C 1026.3 hPa NE 3 km/h 4.8 km/h 94.8% 0.0 mm 274 W/m2
09:44 16 °C 15.1 °C 1026.3 hPa NE 1.9 km/h 3.2 km/h 93.8% 0.0 mm 264 W/m2
09:49 16.1 °C 15 °C 1026.3 hPa East 3.6 km/h 3.2 km/h 93% 0.0 mm 246 W/m2
09:54 16.4 °C 15.2 °C 1026.3 hPa East 3 km/h 4.8 km/h 92.8% 0.0 mm 223 W/m2
09:59 16.4 °C 15.2 °C 1026.3 hPa East 4.9 km/h 4.5 km/h 92.2% 0.0 mm 214 W/m2
10:04 16.4 °C 15.1 °C 1026.3 hPa ENE 5.1 km/h 6.4 km/h 92% 0.0 mm 264 W/m2
10:09 16.5 °C 15.2 °C 1026.4 hPa ESE 4.2 km/h 6.4 km/h 92% 0.0 mm 276 W/m2
10:14 16.6 °C 15.3 °C 1026.4 hPa SE 5.6 km/h 6.4 km/h 92% 0.0 mm 278 W/m2
10:19 16.9 °C 15.5 °C 1026.4 hPa East 6 km/h 6.4 km/h 91.4% 0.0 mm 299 W/m2
10:24 17.2 °C 15.7 °C 1026.4 hPa ESE 5.5 km/h 8 km/h 91% 0.0 mm 318 W/m2
10:29 17.3 °C 15.8 °C 1026.3 hPa East 5.9 km/h 8 km/h 90.8% 0.0 mm 323 W/m2
10:33 17.6 °C 15.9 °C 1026.3 hPa NE 5 km/h 4.8 km/h 90.2% 0.0 mm 336 W/m2
10:39 17.9 °C 16.2 °C 1026.4 hPa ENE 3.1 km/h 6.4 km/h 89.6% 0.0 mm 360 W/m2
10:43 18.2 °C 16.3 °C 1026.5 hPa NE 3.7 km/h 4.8 km/h 88.4% 0.0 mm 359 W/m2
10:49 18.4 °C 16.2 °C 1026.5 hPa NE 2.7 km/h 3.2 km/h 87% 0.0 mm 371 W/m2
10:54 18.6 °C 16.3 °C 1026.5 hPa NNE 3.2 km/h 3.2 km/h 86.4% 0.0 mm 380 W/m2
10:59 18.8 °C 16.4 °C 1026.5 hPa ENE 3.2 km/h 4.8 km/h 85.9% 0.0 mm 403 W/m2
11:04 19.1 °C 16.5 °C 1026.5 hPa NNE 2.2 km/h 3.2 km/h 84.7% 0.0 mm 403 W/m2
11:09 19.2 °C 16.3 °C 1026.6 hPa North 1.8 km/h 4.8 km/h 83.6% 0.0 mm 411 W/m2
11:14 19.7 °C 16.4 °C 1026.6 hPa ESE 4.2 km/h 4.8 km/h 81.3% 0.0 mm 406 W/m2
11:19 19.5 °C 16.2 °C 1026.6 hPa East 5.2 km/h 6.4 km/h 80.9% 0.0 mm 403 W/m2
11:24 19.5 °C 16.2 °C 1026.5 hPa East 5.9 km/h 4.8 km/h 81.2% 0.0 mm 434 W/m2
11:29 19.7 °C 16.4 °C 1026.5 hPa ENE 5.3 km/h 8 km/h 81.2% 0.0 mm 445 W/m2
11:34 19.9 °C 16.4 °C 1026.5 hPa East 5.5 km/h 6.9 km/h 80.7% 0.0 mm 455 W/m2
11:39 20.1 °C 16.4 °C 1026.5 hPa East 6.3 km/h 11.3 km/h 79.3% 0.0 mm 464 W/m2
11:44 20.3 °C 16.4 °C 1026.5 hPa SE 8.7 km/h 8.5 km/h 78.2% 0.0 mm 469 W/m2
11:49 20.3 °C 16.3 °C 1026.5 hPa SE 7.8 km/h 12.9 km/h 77.8% 0.0 mm 489 W/m2
11:54 20.5 °C 16.3 °C 1026.5 hPa ESE 9.2 km/h 12.9 km/h 77.1% 0.0 mm 496 W/m2
11:59 20.8 °C 16.4 °C 1026.5 hPa East 5 km/h 11.3 km/h 76% 0.0 mm 503 W/m2
12:04 20.8 °C 16.4 °C 1026.5 hPa ESE 8.8 km/h 12.9 km/h 75.7% 0.0 mm 513 W/m2
12:09 20.8 °C 16.1 °C 1026.5 hPa ESE 6.5 km/h 9.7 km/h 74.8% 0.0 mm 519 W/m2
12:14 21 °C 16.3 °C 1026.5 hPa SE 7.5 km/h 7.6 km/h 74.4% 0.0 mm 520 W/m2
12:19 21.2 °C 16.3 °C 1026.5 hPa SE 8.1 km/h 11.3 km/h 74% 0.0 mm 520 W/m2
12:24 21.1 °C 16.2 °C 1026.4 hPa ESE 6.8 km/h 12.9 km/h 73.3% 0.0 mm 524 W/m2
12:29 21.3 °C 16.2 °C 1026.3 hPa ENE 8.9 km/h 7.2 km/h 72.9% 0.0 mm 545 W/m2
12:34 21.3 °C 16.1 °C 1026.3 hPa ESE 6.9 km/h 14.5 km/h 72.2% 0.0 mm 547 W/m2
12:39 21.4 °C 16.2 °C 1026.3 hPa ESE 6.7 km/h 8 km/h 72.3% 0.0 mm 547 W/m2
12:44 21.5 °C 16.2 °C 1026.2 hPa ENE 6 km/h 11.3 km/h 71.8% 0.0 mm 545 W/m2
12:49 22.1 °C 16.5 °C 1026.2 hPa NE 3.7 km/h 6.4 km/h 70.8% 0.0 mm 550 W/m2
12:54 22 °C 16.2 °C 1026.2 hPa SSE 7.8 km/h 9.7 km/h 69.5% 0.0 mm 550 W/m2
12:59 21.9 °C 16.4 °C 1026.2 hPa ESE 6.7 km/h 9.7 km/h 70.7% 0.0 mm 552 W/m2
13:04 22.2 °C 16.3 °C 1026.2 hPa SE 10.2 km/h 9 km/h 69.3% 0.0 mm 534 W/m2
13:09 22 °C 15.9 °C 1026.2 hPa ESE 8.5 km/h 12.9 km/h 68.4% 0.0 mm 519 W/m2
13:14 21.9 °C 16 °C 1026.2 hPa SE 5.8 km/h 9.7 km/h 68.8% 0.0 mm 497 W/m2
13:19 22.2 °C 16.1 °C 1026.0 hPa NE 5.4 km/h 6.4 km/h 68.3% 0.0 mm 494 W/m2
13:24 22.6 °C 16.2 °C 1026.0 hPa NE 3.2 km/h 6.4 km/h 67.3% 0.0 mm 476 W/m2
13:29 22.8 °C 16.2 °C 1026.0 hPa NNE 5.4 km/h 6.4 km/h 66.3% 0.0 mm 494 W/m2
13:34 22.8 °C 16.1 °C 1026.0 hPa ENE 5.2 km/h 9.7 km/h 66% 0.0 mm 501 W/m2
13:39 22.7 °C 15.8 °C 1026.0 hPa ESE 7.4 km/h 8.2 km/h 65.2% 0.0 mm 545 W/m2
13:44 22.5 °C 15.6 °C 1025.8 hPa East 4.3 km/h 11.3 km/h 65.1% 0.0 mm 555 W/m2
13:49 22.6 °C 15.9 °C 1025.8 hPa ENE 3.8 km/h 4.8 km/h 65.7% 0.0 mm 559 W/m2
13:54 22.9 °C 15.9 °C 1025.7 hPa ESE 5.2 km/h 4.8 km/h 64.8% 0.0 mm 561 W/m2
13:59 23.2 °C 16.1 °C 1025.7 hPa NE 6.3 km/h 8 km/h 64.3% 0.0 mm 559 W/m2
14:04 23.2 °C 15.9 °C 1025.7 hPa North 6.4 km/h 8 km/h 63.3% 0.0 mm 561 W/m2
14:09 23.1 °C 15.9 °C 1025.6 hPa ENE 5.8 km/h 8 km/h 63.7% 0.0 mm 552 W/m2
14:14 23.2 °C 15.7 °C 1025.4 hPa SE 6.8 km/h 8 km/h 62.8% 0.0 mm 548 W/m2
14:19 23.1 °C 15.5 °C 1025.4 hPa SE 5.7 km/h 9.7 km/h 62.4% 0.0 mm 559 W/m2
14:24 23.4 °C 15.7 °C 1025.3 hPa ESE 5.7 km/h 8 km/h 61.7% 0.0 mm 555 W/m2
14:29 23.5 °C 15.6 °C 1025.3 hPa ESE 5.7 km/h 9.7 km/h 61.3% 0.0 mm 566 W/m2
14:34 23.7 °C 15.6 °C 1025.2 hPa SE 4.5 km/h 9.7 km/h 60.5% 0.0 mm 568 W/m2
14:39 23.8 °C 15.7 °C 1025.1 hPa NE 6.3 km/h 8 km/h 60.3% 0.0 mm 536 W/m2
14:44 23.6 °C 15.6 °C 1025.0 hPa NNW 6.4 km/h 8 km/h 60.8% 0.0 mm 517 W/m2
14:49 23.3 °C 15.5 °C 1025.0 hPa NNE 6 km/h 8 km/h 61.4% 0.0 mm 520 W/m2
14:54 23.4 °C 15.4 °C 1025.0 hPa NNE 7.2 km/h 8 km/h 60.7% 0.0 mm 527 W/m2
14:59 23.6 °C 15.4 °C 1025.1 hPa NE 7.3 km/h 8 km/h 60% 0.0 mm 520 W/m2
15:04 23.6 °C 15.3 °C 1025.0 hPa NE 5.2 km/h 9.7 km/h 60% 0.0 mm 466 W/m2
15:09 23.9 °C 15.4 °C 1024.9 hPa NE 6.2 km/h 9.7 km/h 59% 0.0 mm 468 W/m2
15:14 23.7 °C 15.3 °C 1024.9 hPa ESE 9.1 km/h 11.3 km/h 59.3% 0.0 mm 475 W/m2
15:19 23.9 °C 15.3 °C 1024.9 hPa ENE 7.6 km/h 11.3 km/h 58.7% 0.0 mm 452 W/m2
15:24 23.9 °C 15.3 °C 1025.0 hPa NE 4.7 km/h 8 km/h 58.6% 0.0 mm 464 W/m2
15:29 23.9 °C 15 °C 1024.9 hPa ENE 7 km/h 8 km/h 57.6% 0.0 mm 464 W/m2
15:34 23.9 °C 14.8 °C 1024.9 hPa ENE 6.2 km/h 9.7 km/h 57.2% 0.0 mm 443 W/m2
15:39 23.8 °C 14.8 °C 1024.9 hPa ENE 9.3 km/h 8 km/h 57% 0.0 mm 427 W/m2
15:44 23.7 °C 14.6 °C 1024.8 hPa NE 5.4 km/h 11.3 km/h 56.7% 0.0 mm 413 W/m2
15:49 24.1 °C 15 °C 1024.8 hPa ENE 7.2 km/h 9.7 km/h 56.9% 0.0 mm 410 W/m2
15:54 24.3 °C 15 °C 1024.7 hPa ENE 5.3 km/h 11.3 km/h 56.2% 0.0 mm 408 W/m2
15:59 24 °C 14.9 °C 1024.7 hPa NNE 7.5 km/h 7.4 km/h 57% 0.0 mm 397 W/m2
16:04 23.8 °C 15.2 °C 1024.7 hPa ENE 7.5 km/h 9.7 km/h 58.6% 0.0 mm 373 W/m2
16:09 23.9 °C 15.3 °C 1024.8 hPa East 9 km/h 11.3 km/h 58.7% 0.0 mm 341 W/m2
16:14 24.2 °C 15.4 °C 1024.8 hPa East 7.1 km/h 11.3 km/h 58.2% 0.0 mm 343 W/m2
16:19 24 °C 15.2 °C 1024.8 hPa East 9.8 km/h 11.3 km/h 58% 0.0 mm 343 W/m2
16:24 23.9 °C 15.1 °C 1024.8 hPa East 4.5 km/h 12.9 km/h 57.9% 0.0 mm 322 W/m2
16:29 24.1 °C 15.1 °C 1024.8 hPa ESE 6 km/h 8 km/h 57.2% 0.0 mm 313 W/m2
16:34 24.1 °C 15 °C 1024.8 hPa East 9 km/h 9.7 km/h 57.2% 0.0 mm 329 W/m2
16:39 24.1 °C 15 °C 1024.8 hPa East 11.3 km/h 12.9 km/h 56.9% 0.0 mm 301 W/m2
16:43 24 °C 15 °C 1024.8 hPa ENE 10.6 km/h 11.3 km/h 57% 0.0 mm 285 W/m2
16:49 24 °C 15 °C 1024.8 hPa NE 7 km/h 11.3 km/h 57.2% 0.0 mm 274 W/m2
16:54 24 °C 15.2 °C 1024.8 hPa East 10.2 km/h 11.3 km/h 58.2% 0.0 mm 255 W/m2
16:59 23.9 °C 15.2 °C 1024.8 hPa NE 8.1 km/h 14.5 km/h 58.3% 0.0 mm 237 W/m2
17:04 23.9 °C 15.1 °C 1024.8 hPa NE 5.5 km/h 9.7 km/h 58% 0.0 mm 237 W/m2
17:09 24 °C 15.2 °C 1024.9 hPa ENE 6 km/h 5.8 km/h 57.8% 0.0 mm 211 W/m2
17:14 23.9 °C 15.1 °C 1024.8 hPa ENE 9.4 km/h 9.7 km/h 58% 0.0 mm 207 W/m2
17:19 23.8 °C 15.2 °C 1024.8 hPa East 6.5 km/h 12.9 km/h 58.6% 0.0 mm 193 W/m2
17:24 23.8 °C 15.2 °C 1024.9 hPa ENE 6.3 km/h 8 km/h 58.8% 0.0 mm 171 W/m2
17:29 23.7 °C 15.2 °C 1024.8 hPa ENE 7.4 km/h 9.7 km/h 59% 0.0 mm 156 W/m2
17:34 23.7 °C 15.2 °C 1024.9 hPa ENE 8.3 km/h 8 km/h 59% 0.0 mm 142 W/m2
17:39 23.6 °C 15.2 °C 1024.9 hPa ENE 4.4 km/h 11.3 km/h 59.4% 0.0 mm 118 W/m2
17:44 23.5 °C 15.3 °C 1024.9 hPa ENE 7 km/h 6.9 km/h 59.8% 0.0 mm 118 W/m2
17:49 23.4 °C 15.3 °C 1024.8 hPa NE 8.5 km/h 9.7 km/h 60.3% 0.0 mm 107 W/m2
17:54 23.4 °C 15.4 °C 1024.9 hPa ENE 5.7 km/h 9.7 km/h 61% 0.0 mm 95 W/m2
17:59 23.3 °C 15.4 °C 1024.9 hPa ENE 4.5 km/h 8 km/h 60.8% 0.0 mm 83 W/m2
18:04 23.3 °C 15.4 °C 1024.9 hPa NE 4.8 km/h 4.8 km/h 61.3% 0.0 mm 65 W/m2
18:09 23.2 °C 15.6 °C 1024.9 hPa ENE 3.9 km/h 6.4 km/h 62.4% 0.0 mm 54 W/m2
Lodi Weather
Compliments of Weather Underground - 2.25 mb